Terminal Aerodrome Forecast
Issued by NWS Jackson, KY

Home | Current Version | Previous Version | Text Only | Print | Product List | Glossary On
Versions: 1 2 3 4 5 6 7 8 9 10 11 12 13 14 15 16 17
485
FTUS43 KJKL 211731
TAFLOZ
TAF
KLOZ 211731Z 2118/2218 23010G18KT 6SM -SHRA BKN035
     FM212000 32006KT 5SM -SHRA BR OVC015
     FM212200 03004KT 3SM -SHRA BR OVC008
     FM221000 VRB03KT 5SM BR OVC010
     FM221400 21006KT P6SM BKN020 OVC120=

USA.gov is the U.S. government's official web portal to all federal, state and local government web resources and services.